sensor_id;sensor_type;location;lat;lon;timestamp;P1;durP1;ratioP1;P2;durP2;ratioP2
32032;SDS011;31720;52.638;9.216;2022-11-28T00:02:04;4.35;;;2.50;;
32032;SDS011;31720;52.638;9.216;2022-11-28T00:05:08;6.25;;;2.58;;
32032;SDS011;31720;52.638;9.216;2022-11-28T00:08:10;3.92;;;2.33;;
32032;SDS011;31720;52.638;9.216;2022-11-28T00:11:12;3.17;;;1.83;;
32032;SDS011;31720;52.638;9.216;2022-11-28T00:14:17;6.35;;;2.20;;
32032;SDS011;31720;52.638;9.216;2022-11-28T00:17:19;4.18;;;2.30;;
32032;SDS011;31720;52.638;9.216;2022-11-28T00:20:21;4.13;;;2.15;;
32032;SDS011;31720;52.638;9.216;2022-11-28T00:23:22;5.15;;;2.28;;
32032;SDS011;31720;52.638;9.216;2022-11-28T00:26:25;4.63;;;2.70;;
32032;SDS011;31720;52.638;9.216;2022-11-28T00:29:29;4.45;;;2.20;;
32032;SDS011;31720;52.638;9.216;2022-11-28T00:32:31;6.78;;;2.45;;
32032;SDS011;31720;52.638;9.216;2022-11-28T00:35:32;16.35;;;2.97;;
32032;SDS011;31720;52.638;9.216;2022-11-28T00:38:33;3.47;;;2.20;;
32032;SDS011;31720;52.638;9.216;2022-11-28T00:41:35;4.80;;;2.45;;
32032;SDS011;31720;52.638;9.216;2022-11-28T00:44:38;5.45;;;2.40;;
32032;SDS011;31720;52.638;9.216;2022-11-28T00:47:39;4.97;;;3.03;;
32032;SDS011;31720;52.638;9.216;2022-11-28T00:50:40;5.72;;;2.40;;
32032;SDS011;31720;52.638;9.216;2022-11-28T00:53:42;6.63;;;2.72;;
32032;SDS011;31720;52.638;9.216;2022-11-28T00:56:46;6.10;;;2.63;;
32032;SDS011;31720;52.638;9.216;2022-11-28T00:59:49;4.95;;;2.53;;
32032;SDS011;31720;52.638;9.216;2022-11-28T01:02:51;6.25;;;2.65;;
32032;SDS011;31720;52.638;9.216;2022-11-28T01:05:52;6.10;;;2.75;;
32032;SDS011;31720;52.638;9.216;2022-11-28T01:08:54;6.95;;;2.90;;
32032;SDS011;31720;52.638;9.216;2022-11-28T01:11:56;5.40;;;2.88;;
32032;SDS011;31720;52.638;9.216;2022-11-28T01:14:58;5.57;;;2.28;;
32032;SDS011;31720;52.638;9.216;2022-11-28T01:18:00;5.65;;;3.00;;
32032;SDS011;31720;52.638;9.216;2022-11-28T01:21:02;4.32;;;2.55;;
32032;SDS011;31720;52.638;9.216;2022-11-28T01:24:04;4.90;;;2.08;;
32032;SDS011;31720;52.638;9.216;2022-11-28T01:27:05;4.00;;;2.42;;
32032;SDS011;31720;52.638;9.216;2022-11-28T01:30:08;4.50;;;2.63;;
32032;SDS011;31720;52.638;9.216;2022-11-28T01:33:10;4.50;;;2.78;;
32032;SDS011;31720;52.638;9.216;2022-11-28T01:36:12;5.95;;;2.95;;
32032;SDS011;31720;52.638;9.216;2022-11-28T01:39:14;6.03;;;2.50;;
32032;SDS011;31720;52.638;9.216;2022-11-28T01:42:16;6.55;;;2.55;;
32032;SDS011;31720;52.638;9.216;2022-11-28T01:45:21;6.53;;;2.65;;
32032;SDS011;31720;52.638;9.216;2022-11-28T01:48:24;4.30;;;2.60;;
32032;SDS011;31720;52.638;9.216;2022-11-28T01:51:27;3.75;;;1.92;;
32032;SDS011;31720;52.638;9.216;2022-11-28T01:54:30;6.60;;;2.72;;
32032;SDS011;31720;52.638;9.216;2022-11-28T01:57:34;4.82;;;2.35;;
32032;SDS011;31720;52.638;9.216;2022-11-28T02:00:37;5.40;;;2.25;;
32032;SDS011;31720;52.638;9.216;2022-11-28T02:03:40;3.70;;;2.08;;
32032;SDS011;31720;52.638;9.216;2022-11-28T02:06:43;3.35;;;1.90;;
32032;SDS011;31720;52.638;9.216;2022-11-28T02:09:44;5.90;;;2.22;;
32032;SDS011;31720;52.638;9.216;2022-11-28T02:12:53;3.30;;;2.33;;
32032;SDS011;31720;52.638;9.216;2022-11-28T02:19:54;4.25;;;2.40;;
32032;SDS011;31720;52.638;9.216;2022-11-28T02:23:16;4.90;;;2.45;;
32032;SDS011;31720;52.638;9.216;2022-11-28T02:26:31;6.47;;;2.38;;
32032;SDS011;31720;52.638;9.216;2022-11-28T02:33:21;7.10;;;2.65;;
32032;SDS011;31720;52.638;9.216;2022-11-28T02:36:27;5.18;;;2.28;;
32032;SDS011;31720;52.638;9.216;2022-11-28T02:39:33;5.18;;;2.42;;
32032;SDS011;31720;52.638;9.216;2022-11-28T02:42:46;8.93;;;3.03;;
32032;SDS011;31720;52.638;9.216;2022-11-28T02:46:00;3.65;;;2.08;;
32032;SDS011;31720;52.638;9.216;2022-11-28T02:49:09;5.25;;;2.08;;
32032;SDS011;31720;52.638;9.216;2022-11-28T02:52:16;3.75;;;1.80;;
32032;SDS011;31720;52.638;9.216;2022-11-28T02:55:22;5.00;;;2.65;;
32032;SDS011;31720;52.638;9.216;2022-11-28T02:58:25;7.63;;;2.47;;
32032;SDS011;31720;52.638;9.216;2022-11-28T03:01:27;3.78;;;2.20;;
32032;SDS011;31720;52.638;9.216;2022-11-28T03:04:35;5.20;;;2.20;;
32032;SDS011;31720;52.638;9.216;2022-11-28T03:07:50;6.18;;;2.88;;
32032;SDS011;31720;52.638;9.216;2022-11-28T03:11:03;5.63;;;2.40;;
32032;SDS011;31720;52.638;9.216;2022-11-28T03:14:15;5.28;;;2.50;;
32032;SDS011;31720;52.638;9.216;2022-11-28T03:17:26;6.00;;;2.70;;
32032;SDS011;31720;52.638;9.216;2022-11-28T03:20:39;4.63;;;2.70;;
32032;SDS011;31720;52.638;9.216;2022-11-28T03:23:47;4.03;;;1.92;;
32032;SDS011;31720;52.638;9.216;2022-11-28T03:26:52;4.32;;;1.92;;
32032;SDS011;31720;52.638;9.216;2022-11-28T03:29:59;3.63;;;2.30;;
32032;SDS011;31720;52.638;9.216;2022-11-28T03:33:05;4.65;;;2.38;;
32032;SDS011;31720;52.638;9.216;2022-11-28T03:36:10;4.97;;;2.25;;
32032;SDS011;31720;52.638;9.216;2022-11-28T03:39:16;4.95;;;1.92;;
32032;SDS011;31720;52.638;9.216;2022-11-28T03:42:21;6.28;;;2.25;;
32032;SDS011;31720;52.638;9.216;2022-11-28T03:45:25;4.22;;;2.00;;
32032;SDS011;31720;52.638;9.216;2022-11-28T03:48:29;6.22;;;2.53;;
32032;SDS011;31720;52.638;9.216;2022-11-28T03:51:36;6.25;;;2.53;;
32032;SDS011;31720;52.638;9.216;2022-11-28T03:54:42;4.72;;;2.15;;
32032;SDS011;31720;52.638;9.216;2022-11-28T03:57:49;3.53;;;2.00;;
32032;SDS011;31720;52.638;9.216;2022-11-28T04:01:00;5.40;;;2.47;;
32032;SDS011;31720;52.638;9.216;2022-11-28T04:04:10;6.45;;;2.38;;
32032;SDS011;31720;52.638;9.216;2022-11-28T04:07:19;3.45;;;2.00;;
32032;SDS011;31720;52.638;9.216;2022-11-28T04:10:27;4.40;;;2.20;;
32032;SDS011;31720;52.638;9.216;2022-11-28T04:13:35;4.25;;;2.38;;
32032;SDS011;31720;52.638;9.216;2022-11-28T04:16:43;3.88;;;1.88;;
32032;SDS011;31720;52.638;9.216;2022-11-28T04:19:50;7.38;;;2.72;;
32032;SDS011;31720;52.638;9.216;2022-11-28T04:22:58;5.90;;;2.20;;
32032;SDS011;31720;52.638;9.216;2022-11-28T04:26:03;3.28;;;1.80;;
32032;SDS011;31720;52.638;9.216;2022-11-28T04:29:11;2.95;;;1.77;;
32032;SDS011;31720;52.638;9.216;2022-11-28T04:32:17;3.30;;;1.77;;
32032;SDS011;31720;52.638;9.216;2022-11-28T04:35:22;5.82;;;2.50;;
32032;SDS011;31720;52.638;9.216;2022-11-28T04:38:28;2.58;;;1.60;;
32032;SDS011;31720;52.638;9.216;2022-11-28T04:41:32;4.40;;;2.20;;
32032;SDS011;31720;52.638;9.216;2022-11-28T04:44:39;2.88;;;2.05;;
32032;SDS011;31720;52.638;9.216;2022-11-28T04:47:46;7.13;;;1.88;;
32032;SDS011;31720;52.638;9.216;2022-11-28T04:50:49;6.28;;;2.85;;
32032;SDS011;31720;52.638;9.216;2022-11-28T04:53:59;3.85;;;1.80;;
32032;SDS011;31720;52.638;9.216;2022-11-28T04:57:07;4.28;;;2.03;;
32032;SDS011;31720;52.638;9.216;2022-11-28T05:00:15;3.05;;;1.95;;
32032;SDS011;31720;52.638;9.216;2022-11-28T05:03:19;8.30;;;2.50;;
32032;SDS011;31720;52.638;9.216;2022-11-28T05:06:23;5.78;;;1.88;;
32032;SDS011;31720;52.638;9.216;2022-11-28T05:09:27;3.85;;;2.00;;
32032;SDS011;31720;52.638;9.216;2022-11-28T05:12:28;3.80;;;2.00;;
32032;SDS011;31720;52.638;9.216;2022-11-28T05:15:30;4.95;;;2.28;;
32032;SDS011;31720;52.638;9.216;2022-11-28T05:18:31;4.38;;;2.17;;
32032;SDS011;31720;52.638;9.216;2022-11-28T05:21:32;3.35;;;1.90;;
32032;SDS011;31720;52.638;9.216;2022-11-28T05:24:35;5.60;;;2.25;;
32032;SDS011;31720;52.638;9.216;2022-11-28T05:27:37;7.30;;;2.53;;
32032;SDS011;31720;52.638;9.216;2022-11-28T05:30:38;5.35;;;2.47;;
32032;SDS011;31720;52.638;9.216;2022-11-28T05:33:40;5.07;;;2.33;;
32032;SDS011;31720;52.638;9.216;2022-11-28T05:36:41;12.60;;;2.78;;
32032;SDS011;31720;52.638;9.216;2022-11-28T05:39:44;3.35;;;2.05;;
32032;SDS011;31720;52.638;9.216;2022-11-28T05:42:45;3.95;;;2.40;;
32032;SDS011;31720;52.638;9.216;2022-11-28T05:45:47;3.95;;;2.15;;
32032;SDS011;31720;52.638;9.216;2022-11-28T05:48:48;6.55;;;2.50;;
32032;SDS011;31720;52.638;9.216;2022-11-28T05:51:50;3.10;;;2.05;;
32032;SDS011;31720;52.638;9.216;2022-11-28T05:54:53;3.42;;;2.22;;
32032;SDS011;31720;52.638;9.216;2022-11-28T05:57:54;6.25;;;2.28;;
32032;SDS011;31720;52.638;9.216;2022-11-28T06:00:56;4.70;;;2.10;;
32032;SDS011;31720;52.638;9.216;2022-11-28T06:03:58;5.60;;;2.78;;
32032;SDS011;31720;52.638;9.216;2022-11-28T06:07:00;3.53;;;2.25;;
32032;SDS011;31720;52.638;9.216;2022-11-28T06:10:03;5.35;;;2.10;;
32032;SDS011;31720;52.638;9.216;2022-11-28T06:13:05;4.57;;;2.00;;
32032;SDS011;31720;52.638;9.216;2022-11-28T06:16:07;4.32;;;1.92;;
32032;SDS011;31720;52.638;9.216;2022-11-28T06:19:09;7.15;;;2.42;;
32032;SDS011;31720;52.638;9.216;2022-11-28T06:22:12;4.13;;;2.33;;
32032;SDS011;31720;52.638;9.216;2022-11-28T06:25:15;6.82;;;2.58;;
32032;SDS011;31720;52.638;9.216;2022-11-28T06:28:16;3.38;;;2.00;;
32032;SDS011;31720;52.638;9.216;2022-11-28T06:31:18;6.90;;;2.13;;
32032;SDS011;31720;52.638;9.216;2022-11-28T06:34:21;7.20;;;3.15;;
32032;SDS011;31720;52.638;9.216;2022-11-28T06:37:23;6.15;;;2.63;;
32032;SDS011;31720;52.638;9.216;2022-11-28T06:40:26;4.47;;;2.72;;
32032;SDS011;31720;52.638;9.216;2022-11-28T06:43:27;4.43;;;2.47;;
32032;SDS011;31720;52.638;9.216;2022-11-28T06:46:29;8.18;;;2.58;;
32032;SDS011;31720;52.638;9.216;2022-11-28T06:49:31;3.28;;;1.95;;
32032;SDS011;31720;52.638;9.216;2022-11-28T06:52:33;4.25;;;2.40;;
32032;SDS011;31720;52.638;9.216;2022-11-28T06:55:36;7.10;;;3.10;;
32032;SDS011;31720;52.638;9.216;2022-11-28T06:58:38;5.90;;;2.38;;
32032;SDS011;31720;52.638;9.216;2022-11-28T07:01:39;5.13;;;3.05;;
32032;SDS011;31720;52.638;9.216;2022-11-28T07:04:41;4.28;;;2.42;;
32032;SDS011;31720;52.638;9.216;2022-11-28T07:07:42;5.22;;;2.85;;
32032;SDS011;31720;52.638;9.216;2022-11-28T07:10:45;8.43;;;3.00;;
32032;SDS011;31720;52.638;9.216;2022-11-28T07:13:46;4.55;;;2.22;;
32032;SDS011;31720;52.638;9.216;2022-11-28T07:16:48;5.40;;;2.83;;
32032;SDS011;31720;52.638;9.216;2022-11-28T07:19:50;4.82;;;1.83;;
32032;SDS011;31720;52.638;9.216;2022-11-28T07:22:51;5.13;;;2.38;;
32032;SDS011;31720;52.638;9.216;2022-11-28T07:25:57;5.63;;;2.67;;
32032;SDS011;31720;52.638;9.216;2022-11-28T07:28:59;4.50;;;2.70;;
32032;SDS011;31720;52.638;9.216;2022-11-28T07:32:01;4.35;;;2.80;;
32032;SDS011;31720;52.638;9.216;2022-11-28T07:35:03;8.75;;;2.90;;
32032;SDS011;31720;52.638;9.216;2022-11-28T07:38:07;5.85;;;3.20;;
32032;SDS011;31720;52.638;9.216;2022-11-28T07:41:10;5.05;;;2.47;;
32032;SDS011;31720;52.638;9.216;2022-11-28T07:44:13;9.77;;;2.58;;
32032;SDS011;31720;52.638;9.216;2022-11-28T07:47:16;5.28;;;2.50;;
32032;SDS011;31720;52.638;9.216;2022-11-28T07:50:18;4.95;;;2.42;;
32032;SDS011;31720;52.638;9.216;2022-11-28T07:53:19;7.68;;;2.38;;
32032;SDS011;31720;52.638;9.216;2022-11-28T07:56:23;4.38;;;2.08;;
32032;SDS011;31720;52.638;9.216;2022-11-28T07:59:25;5.68;;;2.50;;
32032;SDS011;31720;52.638;9.216;2022-11-28T08:02:27;5.00;;;2.17;;
32032;SDS011;31720;52.638;9.216;2022-11-28T08:05:31;5.00;;;2.47;;
32032;SDS011;31720;52.638;9.216;2022-11-28T08:08:32;4.78;;;2.45;;
32032;SDS011;31720;52.638;9.216;2022-11-28T08:11:35;4.15;;;2.28;;
32032;SDS011;31720;52.638;9.216;2022-11-28T08:14:37;6.78;;;2.97;;
32032;SDS011;31720;52.638;9.216;2022-11-28T08:17:39;7.65;;;2.97;;
32032;SDS011;31720;52.638;9.216;2022-11-28T08:20:40;4.72;;;2.38;;
32032;SDS011;31720;52.638;9.216;2022-11-28T08:23:41;7.60;;;2.50;;
32032;SDS011;31720;52.638;9.216;2022-11-28T08:26:45;9.30;;;3.03;;
32032;SDS011;31720;52.638;9.216;2022-11-28T08:29:47;4.43;;;2.45;;
32032;SDS011;31720;52.638;9.216;2022-11-28T08:32:48;2.75;;;2.22;;
32032;SDS011;31720;52.638;9.216;2022-11-28T08:35:50;7.93;;;3.28;;
32032;SDS011;31720;52.638;9.216;2022-11-28T08:38:51;3.97;;;2.30;;
32032;SDS011;31720;52.638;9.216;2022-11-28T08:41:54;9.55;;;2.58;;
32032;SDS011;31720;52.638;9.216;2022-11-28T08:44:57;4.82;;;2.35;;
32032;SDS011;31720;52.638;9.216;2022-11-28T08:47:59;4.80;;;2.88;;
32032;SDS011;31720;52.638;9.216;2022-11-28T08:51:00;6.55;;;3.20;;
32032;SDS011;31720;52.638;9.216;2022-11-28T08:54:02;4.50;;;2.38;;
32032;SDS011;31720;52.638;9.216;2022-11-28T08:57:05;7.70;;;3.28;;
32032;SDS011;31720;52.638;9.216;2022-11-28T09:00:07;6.55;;;2.85;;
32032;SDS011;31720;52.638;9.216;2022-11-28T09:03:10;4.53;;;2.92;;
32032;SDS011;31720;52.638;9.216;2022-11-28T09:06:14;5.10;;;2.67;;
32032;SDS011;31720;52.638;9.216;2022-11-28T09:09:17;4.55;;;2.20;;
32032;SDS011;31720;52.638;9.216;2022-11-28T09:12:20;6.97;;;3.70;;
32032;SDS011;31720;52.638;9.216;2022-11-28T09:15:21;7.18;;;3.33;;
32032;SDS011;31720;52.638;9.216;2022-11-28T09:18:23;6.80;;;2.80;;
32032;SDS011;31720;52.638;9.216;2022-11-28T09:21:26;5.63;;;3.33;;
32032;SDS011;31720;52.638;9.216;2022-11-28T09:24:27;8.20;;;3.05;;
32032;SDS011;31720;52.638;9.216;2022-11-28T09:27:30;7.60;;;4.20;;
32032;SDS011;31720;52.638;9.216;2022-11-28T09:30:31;8.90;;;4.15;;
32032;SDS011;31720;52.638;9.216;2022-11-28T09:33:33;7.80;;;3.20;;
32032;SDS011;31720;52.638;9.216;2022-11-28T09:36:35;8.00;;;3.80;;
32032;SDS011;31720;52.638;9.216;2022-11-28T09:39:37;9.60;;;3.38;;
32032;SDS011;31720;52.638;9.216;2022-11-28T09:42:40;9.50;;;3.40;;
32032;SDS011;31720;52.638;9.216;2022-11-28T09:45:43;7.72;;;4.22;;
32032;SDS011;31720;52.638;9.216;2022-11-28T09:48:51;10.85;;;3.90;;
32032;SDS011;31720;52.638;9.216;2022-11-28T09:51:56;10.05;;;3.70;;
32032;SDS011;31720;52.638;9.216;2022-11-28T09:55:10;7.75;;;3.42;;
32032;SDS011;31720;52.638;9.216;2022-11-28T09:58:21;7.18;;;3.40;;
32032;SDS011;31720;52.638;9.216;2022-11-28T10:01:28;7.38;;;4.00;;
32032;SDS011;31720;52.638;9.216;2022-11-28T10:04:37;7.00;;;3.72;;
32032;SDS011;31720;52.638;9.216;2022-11-28T10:07:46;8.82;;;4.18;;
32032;SDS011;31720;52.638;9.216;2022-11-28T10:11:00;8.07;;;3.95;;
32032;SDS011;31720;52.638;9.216;2022-11-28T10:14:08;6.20;;;3.63;;
32032;SDS011;31720;52.638;9.216;2022-11-28T10:17:36;8.30;;;3.85;;
32032;SDS011;31720;52.638;9.216;2022-11-28T10:20:46;6.05;;;3.33;;
32032;SDS011;31720;52.638;9.216;2022-11-28T10:23:52;6.82;;;3.58;;
32032;SDS011;31720;52.638;9.216;2022-11-28T10:26:57;8.85;;;3.85;;
32032;SDS011;31720;52.638;9.216;2022-11-28T10:30:05;8.25;;;3.58;;
32032;SDS011;31720;52.638;9.216;2022-11-28T10:33:13;5.87;;;3.27;;
32032;SDS011;31720;52.638;9.216;2022-11-28T10:36:21;8.75;;;4.13;;
32032;SDS011;31720;52.638;9.216;2022-11-28T10:39:26;7.63;;;3.58;;
32032;SDS011;31720;52.638;9.216;2022-11-28T10:42:30;7.80;;;3.90;;
32032;SDS011;31720;52.638;9.216;2022-11-28T10:45:43;6.72;;;3.70;;
32032;SDS011;31720;52.638;9.216;2022-11-28T10:48:50;9.23;;;3.80;;
32032;SDS011;31720;52.638;9.216;2022-11-28T10:52:02;7.78;;;3.58;;
32032;SDS011;31720;52.638;9.216;2022-11-28T10:55:16;6.93;;;3.40;;
32032;SDS011;31720;52.638;9.216;2022-11-28T10:58:26;6.43;;;3.53;;
32032;SDS011;31720;52.638;9.216;2022-11-28T11:01:35;6.90;;;4.38;;
32032;SDS011;31720;52.638;9.216;2022-11-28T11:04:39;8.05;;;3.97;;
32032;SDS011;31720;52.638;9.216;2022-11-28T11:07:42;6.78;;;3.55;;
32032;SDS011;31720;52.638;9.216;2022-11-28T11:10:48;6.28;;;3.10;;
32032;SDS011;31720;52.638;9.216;2022-11-28T11:13:56;6.63;;;3.45;;
32032;SDS011;31720;52.638;9.216;2022-11-28T11:17:01;6.38;;;3.30;;
32032;SDS011;31720;52.638;9.216;2022-11-28T11:20:13;6.97;;;3.88;;
32032;SDS011;31720;52.638;9.216;2022-11-28T11:23:26;12.20;;;4.90;;
32032;SDS011;31720;52.638;9.216;2022-11-28T11:26:31;9.63;;;3.83;;
32032;SDS011;31720;52.638;9.216;2022-11-28T11:32:41;8.85;;;3.85;;
32032;SDS011;31720;52.638;9.216;2022-11-28T11:35:47;8.52;;;3.85;;
32032;SDS011;31720;52.638;9.216;2022-11-28T11:38:49;7.90;;;3.95;;
32032;SDS011;31720;52.638;9.216;2022-11-28T11:42:07;7.80;;;3.80;;
32032;SDS011;31720;52.638;9.216;2022-11-28T11:45:24;6.97;;;3.65;;
32032;SDS011;31720;52.638;9.216;2022-11-28T11:48:34;9.13;;;4.05;;
32032;SDS011;31720;52.638;9.216;2022-11-28T11:51:37;8.18;;;3.88;;
32032;SDS011;31720;52.638;9.216;2022-11-28T11:54:38;8.93;;;4.45;;
32032;SDS011;31720;52.638;9.216;2022-11-28T11:57:52;9.27;;;3.70;;
32032;SDS011;31720;52.638;9.216;2022-11-28T12:00:55;9.82;;;4.40;;
32032;SDS011;31720;52.638;9.216;2022-11-28T12:04:02;10.90;;;4.65;;
32032;SDS011;31720;52.638;9.216;2022-11-28T12:07:19;10.10;;;4.40;;
32032;SDS011;31720;52.638;9.216;2022-11-28T12:10:27;9.45;;;4.07;;
32032;SDS011;31720;52.638;9.216;2022-11-28T12:13:31;9.30;;;5.10;;
32032;SDS011;31720;52.638;9.216;2022-11-28T12:16:39;9.50;;;3.80;;
32032;SDS011;31720;52.638;9.216;2022-11-28T12:19:51;7.90;;;3.88;;
32032;SDS011;31720;52.638;9.216;2022-11-28T12:23:05;8.20;;;3.97;;
32032;SDS011;31720;52.638;9.216;2022-11-28T12:26:18;11.10;;;4.45;;
32032;SDS011;31720;52.638;9.216;2022-11-28T12:32:49;11.40;;;4.78;;
32032;SDS011;31720;52.638;9.216;2022-11-28T12:36:03;11.02;;;3.97;;
32032;SDS011;31720;52.638;9.216;2022-11-28T12:39:15;12.38;;;4.65;;
32032;SDS011;31720;52.638;9.216;2022-11-28T12:42:26;12.02;;;4.47;;
32032;SDS011;31720;52.638;9.216;2022-11-28T12:45:39;8.23;;;3.80;;
32032;SDS011;31720;52.638;9.216;2022-11-28T12:48:53;8.57;;;4.20;;
32032;SDS011;31720;52.638;9.216;2022-11-28T12:52:11;9.73;;;4.72;;
32032;SDS011;31720;52.638;9.216;2022-11-28T12:55:22;11.23;;;4.55;;
32032;SDS011;31720;52.638;9.216;2022-11-28T12:58:32;10.73;;;4.38;;
32032;SDS011;31720;52.638;9.216;2022-11-28T13:01:46;9.65;;;4.45;;
32032;SDS011;31720;52.638;9.216;2022-11-28T13:04:59;10.82;;;4.93;;
32032;SDS011;31720;52.638;9.216;2022-11-28T13:08:20;11.23;;;3.65;;
32032;SDS011;31720;52.638;9.216;2022-11-28T13:11:44;10.07;;;3.63;;
32032;SDS011;31720;52.638;9.216;2022-11-28T13:14:54;8.27;;;4.60;;
32032;SDS011;31720;52.638;9.216;2022-11-28T13:18:00;9.02;;;4.68;;
32032;SDS011;31720;52.638;9.216;2022-11-28T13:21:11;9.95;;;4.05;;
32032;SDS011;31720;52.638;9.216;2022-11-28T13:24:23;10.15;;;4.03;;
32032;SDS011;31720;52.638;9.216;2022-11-28T13:27:31;10.32;;;3.90;;
32032;SDS011;31720;52.638;9.216;2022-11-28T13:30:38;9.07;;;4.03;;
32032;SDS011;31720;52.638;9.216;2022-11-28T13:33:47;6.10;;;3.72;;
32032;SDS011;31720;52.638;9.216;2022-11-28T13:36:51;7.95;;;3.80;;
32032;SDS011;31720;52.638;9.216;2022-11-28T13:40:00;11.13;;;4.25;;
32032;SDS011;31720;52.638;9.216;2022-11-28T13:43:13;8.35;;;4.40;;
32032;SDS011;31720;52.638;9.216;2022-11-28T13:46:22;10.68;;;4.63;;
32032;SDS011;31720;52.638;9.216;2022-11-28T13:49:24;9.18;;;4.10;;
32032;SDS011;31720;52.638;9.216;2022-11-28T13:52:31;9.15;;;4.13;;
32032;SDS011;31720;52.638;9.216;2022-11-28T13:55:43;7.63;;;4.10;;
32032;SDS011;31720;52.638;9.216;2022-11-28T13:58:46;9.30;;;3.92;;
32032;SDS011;31720;52.638;9.216;2022-11-28T14:01:53;11.52;;;4.38;;
32032;SDS011;31720;52.638;9.216;2022-11-28T14:04:57;12.57;;;4.07;;
32032;SDS011;31720;52.638;9.216;2022-11-28T14:07:59;12.07;;;4.30;;
32032;SDS011;31720;52.638;9.216;2022-11-28T14:11:06;9.02;;;3.67;;
32032;SDS011;31720;52.638;9.216;2022-11-28T14:18:00;9.82;;;4.20;;
32032;SDS011;31720;52.638;9.216;2022-11-28T14:21:17;19.85;;;7.13;;
32032;SDS011;31720;52.638;9.216;2022-11-28T14:24:39;13.85;;;4.63;;
32032;SDS011;31720;52.638;9.216;2022-11-28T14:27:53;12.73;;;5.35;;
32032;SDS011;31720;52.638;9.216;2022-11-28T14:30:59;9.98;;;4.45;;
32032;SDS011;31720;52.638;9.216;2022-11-28T14:34:04;8.38;;;4.05;;
32032;SDS011;31720;52.638;9.216;2022-11-28T14:40:58;12.20;;;4.80;;
32032;SDS011;31720;52.638;9.216;2022-11-28T14:51:16;16.92;;;5.80;;
32032;SDS011;31720;52.638;9.216;2022-11-28T14:54:18;30.90;;;10.82;;
32032;SDS011;31720;52.638;9.216;2022-11-28T14:57:23;15.35;;;5.25;;
32032;SDS011;31720;52.638;9.216;2022-11-28T15:00:27;9.15;;;4.78;;
32032;SDS011;31720;52.638;9.216;2022-11-28T15:03:34;8.40;;;4.80;;
32032;SDS011;31720;52.638;9.216;2022-11-28T15:06:41;16.83;;;4.68;;
32032;SDS011;31720;52.638;9.216;2022-11-28T15:09:44;8.82;;;4.47;;
32032;SDS011;31720;52.638;9.216;2022-11-28T15:12:58;10.35;;;4.90;;
32032;SDS011;31720;52.638;9.216;2022-11-28T15:16:10;20.23;;;7.60;;
32032;SDS011;31720;52.638;9.216;2022-11-28T15:19:14;16.92;;;5.75;;
32032;SDS011;31720;52.638;9.216;2022-11-28T15:22:27;10.27;;;5.05;;
32032;SDS011;31720;52.638;9.216;2022-11-28T15:28:36;10.20;;;4.50;;
32032;SDS011;31720;52.638;9.216;2022-11-28T15:31:39;9.70;;;5.60;;
32032;SDS011;31720;52.638;9.216;2022-11-28T15:34:43;9.82;;;4.72;;
32032;SDS011;31720;52.638;9.216;2022-11-28T15:37:52;8.68;;;4.47;;
32032;SDS011;31720;52.638;9.216;2022-11-28T15:40:55;12.20;;;5.03;;
32032;SDS011;31720;52.638;9.216;2022-11-28T15:43:58;9.23;;;4.63;;
32032;SDS011;31720;52.638;9.216;2022-11-28T15:47:01;10.77;;;4.70;;
32032;SDS011;31720;52.638;9.216;2022-11-28T15:50:09;10.85;;;5.22;;
32032;SDS011;31720;52.638;9.216;2022-11-28T15:53:17;9.75;;;4.78;;
32032;SDS011;31720;52.638;9.216;2022-11-28T15:56:20;9.57;;;4.82;;
32032;SDS011;31720;52.638;9.216;2022-11-28T15:59:22;9.05;;;4.60;;
32032;SDS011;31720;52.638;9.216;2022-11-28T16:02:26;13.88;;;4.10;;
32032;SDS011;31720;52.638;9.216;2022-11-28T16:05:30;8.23;;;4.45;;
32032;SDS011;31720;52.638;9.216;2022-11-28T16:08:32;7.47;;;3.70;;
32032;SDS011;31720;52.638;9.216;2022-11-28T16:11:36;9.27;;;4.68;;
32032;SDS011;31720;52.638;9.216;2022-11-28T16:14:41;11.93;;;5.07;;
32032;SDS011;31720;52.638;9.216;2022-11-28T16:17:45;14.02;;;5.50;;
32032;SDS011;31720;52.638;9.216;2022-11-28T16:20:47;9.77;;;4.65;;
32032;SDS011;31720;52.638;9.216;2022-11-28T16:23:49;8.07;;;4.53;;
32032;SDS011;31720;52.638;9.216;2022-11-28T16:26:54;7.70;;;4.30;;
32032;SDS011;31720;52.638;9.216;2022-11-28T16:29:58;7.93;;;4.15;;
32032;SDS011;31720;52.638;9.216;2022-11-28T16:33:02;6.50;;;3.83;;
32032;SDS011;31720;52.638;9.216;2022-11-28T16:36:29;9.40;;;4.00;;
32032;SDS011;31720;52.638;9.216;2022-11-28T16:39:34;10.45;;;5.20;;
32032;SDS011;31720;52.638;9.216;2022-11-28T16:42:36;12.98;;;4.57;;
32032;SDS011;31720;52.638;9.216;2022-11-28T16:45:37;8.88;;;4.35;;
32032;SDS011;31720;52.638;9.216;2022-11-28T16:48:45;9.23;;;4.70;;
32032;SDS011;31720;52.638;9.216;2022-11-28T16:55:35;7.43;;;3.63;;
32032;SDS011;31720;52.638;9.216;2022-11-28T16:58:38;11.40;;;5.15;;
32032;SDS011;31720;52.638;9.216;2022-11-28T17:01:40;10.80;;;4.93;;
32032;SDS011;31720;52.638;9.216;2022-11-28T17:04:45;11.40;;;5.03;;
32032;SDS011;31720;52.638;9.216;2022-11-28T17:07:47;8.30;;;4.15;;
32032;SDS011;31720;52.638;9.216;2022-11-28T17:10:48;11.40;;;5.80;;
32032;SDS011;31720;52.638;9.216;2022-11-28T17:13:50;10.40;;;5.15;;
32032;SDS011;31720;52.638;9.216;2022-11-28T17:16:51;12.00;;;5.88;;
32032;SDS011;31720;52.638;9.216;2022-11-28T17:19:54;11.98;;;5.15;;
32032;SDS011;31720;52.638;9.216;2022-11-28T17:22:56;8.85;;;4.70;;
32032;SDS011;31720;52.638;9.216;2022-11-28T17:25:58;13.15;;;5.07;;
32032;SDS011;31720;52.638;9.216;2022-11-28T17:29:00;8.93;;;4.30;;
32032;SDS011;31720;52.638;9.216;2022-11-28T17:32:01;8.48;;;5.10;;
32032;SDS011;31720;52.638;9.216;2022-11-28T17:35:07;11.23;;;4.80;;
32032;SDS011;31720;52.638;9.216;2022-11-28T17:38:12;16.67;;;4.97;;
32032;SDS011;31720;52.638;9.216;2022-11-28T17:41:14;15.00;;;5.38;;
32032;SDS011;31720;52.638;9.216;2022-11-28T17:44:16;10.85;;;4.88;;
32032;SDS011;31720;52.638;9.216;2022-11-28T17:47:20;9.45;;;5.03;;
32032;SDS011;31720;52.638;9.216;2022-11-28T17:50:24;9.65;;;4.55;;
32032;SDS011;31720;52.638;9.216;2022-11-28T17:53:25;17.92;;;6.68;;
32032;SDS011;31720;52.638;9.216;2022-11-28T17:56:26;16.13;;;6.15;;
32032;SDS011;31720;52.638;9.216;2022-11-28T17:59:28;12.73;;;4.90;;
32032;SDS011;31720;52.638;9.216;2022-11-28T18:02:29;9.95;;;3.80;;
32032;SDS011;31720;52.638;9.216;2022-11-28T18:05:32;14.10;;;5.00;;
32032;SDS011;31720;52.638;9.216;2022-11-28T18:08:36;10.25;;;4.22;;
32032;SDS011;31720;52.638;9.216;2022-11-28T18:11:37;8.30;;;3.88;;
32032;SDS011;31720;52.638;9.216;2022-11-28T18:14:39;7.95;;;4.28;;
32032;SDS011;31720;52.638;9.216;2022-11-28T18:17:41;8.25;;;4.25;;
32032;SDS011;31720;52.638;9.216;2022-11-28T18:20:43;10.35;;;4.80;;
32032;SDS011;31720;52.638;9.216;2022-11-28T18:23:45;9.23;;;4.78;;
32032;SDS011;31720;52.638;9.216;2022-11-28T18:26:49;10.30;;;5.07;;
32032;SDS011;31720;52.638;9.216;2022-11-28T18:29:51;12.30;;;5.63;;
32032;SDS011;31720;52.638;9.216;2022-11-28T18:32:52;9.27;;;3.70;;
32032;SDS011;31720;52.638;9.216;2022-11-28T18:35:55;13.38;;;5.13;;
32032;SDS011;31720;52.638;9.216;2022-11-28T18:39:10;8.68;;;4.43;;
32032;SDS011;31720;52.638;9.216;2022-11-28T18:42:13;9.10;;;4.32;;
32032;SDS011;31720;52.638;9.216;2022-11-28T18:45:16;11.13;;;4.50;;
32032;SDS011;31720;52.638;9.216;2022-11-28T18:48:17;9.00;;;4.70;;
32032;SDS011;31720;52.638;9.216;2022-11-28T18:51:20;9.13;;;4.53;;
32032;SDS011;31720;52.638;9.216;2022-11-28T18:54:24;11.55;;;5.70;;
32032;SDS011;31720;52.638;9.216;2022-11-28T18:57:25;9.30;;;4.82;;
32032;SDS011;31720;52.638;9.216;2022-11-28T19:00:30;8.55;;;4.90;;
32032;SDS011;31720;52.638;9.216;2022-11-28T19:03:31;11.73;;;5.95;;
32032;SDS011;31720;52.638;9.216;2022-11-28T19:06:34;15.75;;;5.43;;
32032;SDS011;31720;52.638;9.216;2022-11-28T19:09:37;8.13;;;4.43;;